Archival Weather

Biggin Hill

Biggin Hill, United Kingdom (EGKB)

Report from: Sunday, September 25, 2022 6:20 PM BST
Current time: Saturday, March 2, 2024 8:56 AM GMT

Current weather – Weather history – Daily summaries
Weather forecast

Temperature13.0°C (55.4°F)
Dew point4.0°C (39.2°F)
Winds 4 kts (2.1 m/s, 4.6 mph) Vrb
Winds variableWinds variable from Southwest (220°) to Northwest (310°)
Clouds Sky clear
Altimeter30.00 in.Hg (1016 mB)
Relative humidity54 %
Density altitude-210 ft. (-64 m)
Remarks Ceiling and visibility OK
Flight conditions Visual Meteorological Conditions
Raw dataEGKB 251720Z 27004KT 220V310 CAVOK 13/04 Q1016
An error has occurred. This application may no longer respond until reloaded. Reload 🗙